createdAt,value
2023-05-06T00:02:56.967Z,13.20
2023-05-06T00:05:26.944Z,15.75
2023-05-06T00:07:54.752Z,17.83
2023-05-06T00:10:23.287Z,15.32
2023-05-06T00:12:51.362Z,15.25
2023-05-06T00:15:18.966Z,11.93
2023-05-06T00:17:46.833Z,13.70
2023-05-06T00:22:42.506Z,14.60
2023-05-06T00:25:11.003Z,17.83
2023-05-06T00:27:39.069Z,14.25
2023-05-06T00:32:34.386Z,12.70
2023-05-06T00:35:02.470Z,16.25
2023-05-06T00:37:31.329Z,17.20
2023-05-06T00:39:59.331Z,15.68
2023-05-06T00:44:54.494Z,14.80
2023-05-06T00:49:51.107Z,19.52
2023-05-06T00:52:20.400Z,17.25
2023-05-06T00:57:15.566Z,21.23
2023-05-06T00:59:44.128Z,18.02
2023-05-06T01:02:12.282Z,18.88
2023-05-06T01:04:41.604Z,19.38
2023-05-06T01:07:29.954Z,17.90
2023-05-06T01:10:08.301Z,17.58
2023-05-06T01:13:03.156Z,14.23
2023-05-06T01:15:38.925Z,21.60
2023-05-06T01:18:11.503Z,17.48
2023-05-06T01:20:42.380Z,18.58
2023-05-06T01:23:14.908Z,18.45
2023-05-06T01:25:44.375Z,18.13
2023-05-06T01:28:13.101Z,14.32
2023-05-06T01:30:44.729Z,16.38
2023-05-06T01:33:35.570Z,18.48
2023-05-06T01:36:32.292Z,19.73
2023-05-06T01:39:20.497Z,15.75
2023-05-06T01:41:50.295Z,16.90
2023-05-06T01:44:22.232Z,14.50
2023-05-06T01:46:57.661Z,16.75
2023-05-06T01:49:35.690Z,21.65
2023-05-06T01:52:04.269Z,23.52
2023-05-06T01:54:35.037Z,18.63
2023-05-06T18:34:28.322Z,10.32
2023-05-06T18:36:58.549Z,13.60
2023-05-06T18:39:26.655Z,13.02
2023-05-06T18:44:58.126Z,12.25
2023-05-06T18:47:33.368Z,14.48
2023-05-06T19:02:02.378Z,11.52
2023-05-06T19:04:31.640Z,11.90
2023-05-06T19:07:01.239Z,11.05
2023-05-06T19:09:28.980Z,14.75
2023-05-06T19:11:56.643Z,9.30
2023-05-06T19:14:25.527Z,9.07
2023-05-06T19:17:26.755Z,9.02
2023-05-06T19:19:54.601Z,9.50
2023-05-06T19:22:25.002Z,11.23
2023-05-06T19:24:59.207Z,12.35
2023-05-06T19:27:26.955Z,10.02
2023-05-06T19:29:55.247Z,12.55
2023-05-06T19:32:23.574Z,13.43
2023-05-06T19:34:51.839Z,12.38
2023-05-06T19:39:47.981Z,13.13
2023-05-06T19:42:17.883Z,12.13
2023-05-06T19:44:48.119Z,10.85
2023-05-06T19:47:15.925Z,9.23
2023-05-06T19:49:44.192Z,11.48
2023-05-06T19:52:13.235Z,12.07
2023-05-06T19:57:08.630Z,9.80
2023-05-06T19:59:36.151Z,9.93
2023-05-06T20:02:03.820Z,11.90
2023-05-06T20:04:31.500Z,11.68
2023-05-06T20:06:59.130Z,10.90
2023-05-06T20:09:26.939Z,10.13
2023-05-06T20:11:54.650Z,11.02
2023-05-06T20:14:23.139Z,12.55
2023-05-06T20:16:54.686Z,12.35
2023-05-06T20:19:23.859Z,12.02
2023-05-06T20:21:51.581Z,10.38
2023-05-06T20:24:19.841Z,10.15
2023-05-06T20:26:47.487Z,11.85
2023-05-06T20:29:15.180Z,12.07
2023-05-06T20:31:46.996Z,12.13
2023-05-06T20:34:15.284Z,10.60
2023-05-06T20:36:43.400Z,11.88
2023-05-06T20:39:12.282Z,11.98
2023-05-06T20:41:40.117Z,12.68
2023-05-06T20:44:07.842Z,12.18
2023-05-06T20:46:35.655Z,15.23
2023-05-06T20:49:03.805Z,16.75
2023-05-06T20:51:32.630Z,16.23
2023-05-06T20:54:03.167Z,17.55
2023-05-06T20:56:31.757Z,15.27
2023-05-06T20:58:59.820Z,17.25
2023-05-06T21:03:58.940Z,20.70
2023-05-06T21:06:26.952Z,20.67
2023-05-06T21:11:23.918Z,21.10
2023-05-06T21:13:51.844Z,19.88
2023-05-06T21:18:49.321Z,20.40
2023-05-06T21:21:17.189Z,19.23
2023-05-06T21:23:45.795Z,20.63
2023-05-06T21:26:13.833Z,16.65
2023-05-06T21:28:41.614Z,14.90
2023-05-06T21:31:09.260Z,13.32
2023-05-06T21:33:37.118Z,16.25
2023-05-06T21:36:05.097Z,16.70
2023-05-06T21:38:32.854Z,15.05
2023-05-06T21:41:00.556Z,14.70
2023-05-06T21:43:32.038Z,13.73
2023-05-06T21:46:04.083Z,13.48
2023-05-06T21:48:31.729Z,12.57
2023-05-06T21:51:03.511Z,11.18
2023-05-06T21:53:31.451Z,12.15
2023-05-06T22:00:54.852Z,14.50
2023-05-06T22:03:22.601Z,12.75
2023-05-06T22:08:18.802Z,13.52
2023-05-06T22:10:46.608Z,17.20
2023-05-06T22:13:14.250Z,18.58
2023-05-06T22:15:42.341Z,16.42
2023-05-06T22:18:10.978Z,15.68
2023-05-06T22:20:38.757Z,16.58
2023-05-06T22:23:06.480Z,13.68
2023-05-06T22:25:34.211Z,12.45
2023-05-06T22:28:03.072Z,13.27
2023-05-06T22:30:30.832Z,11.63
2023-05-06T22:32:58.608Z,11.10
2023-05-06T22:35:26.380Z,12.00
2023-05-06T22:37:54.272Z,7.50
2023-05-06T22:40:22.267Z,5.05
2023-05-06T22:42:50.158Z,6.28
2023-05-06T22:45:17.884Z,5.65
2023-05-06T22:47:46.055Z,6.38
2023-05-06T22:50:14.132Z,6.60
2023-05-06T22:52:42.062Z,6.20
2023-05-06T22:55:10.530Z,7.95
2023-05-06T22:57:38.388Z,5.68
2023-05-06T23:00:07.591Z,6.07
2023-05-06T23:02:35.346Z,6.97
2023-05-06T23:05:03.067Z,8.18
2023-05-06T23:07:30.778Z,6.93
2023-05-06T23:09:59.793Z,8.82
2023-05-06T23:12:31.558Z,9.70
2023-05-06T23:15:00.107Z,9.60
2023-05-06T23:17:27.855Z,9.35
2023-05-06T23:19:55.899Z,9.85
2023-05-06T23:22:23.586Z,8.90
2023-05-06T23:24:51.476Z,11.43
2023-05-06T23:27:19.381Z,11.45
2023-05-06T23:32:14.963Z,15.20
2023-05-06T23:34:42.835Z,20.75
2023-05-06T23:37:14.496Z,19.67
2023-05-06T23:41:56.429Z,24.02
2023-05-06T23:44:31.654Z,24.95
2023-05-06T23:46:59.545Z,23.92
2023-05-06T23:49:27.352Z,25.00
2023-05-06T23:51:55.030Z,26.92
2023-05-06T23:54:24.975Z,33.65
2023-05-06T23:56:52.706Z,30.13
2023-05-06T23:59:20.356Z,28.98
